createdAt,value
2018-05-04T00:00:13.861Z,5.00
2018-05-04T00:00:50.567Z,4.50
2018-05-04T00:01:27.768Z,4.90
2018-05-04T00:02:04.103Z,5.20
2018-05-04T00:02:39.681Z,5.30
2018-05-04T00:03:15.214Z,5.00
2018-05-04T00:03:50.850Z,5.20
2018-05-04T00:04:26.273Z,5.20
2018-05-04T00:05:01.506Z,5.20
2018-05-04T00:05:37.968Z,5.20
2018-05-04T00:06:13.324Z,4.30
2018-05-04T00:06:48.681Z,4.60
2018-05-04T00:07:24.236Z,5.00
2018-05-04T00:08:00.687Z,4.60
2018-05-04T00:08:36.213Z,5.00
2018-05-04T00:09:11.628Z,5.20
2018-05-04T00:09:46.866Z,4.70
2018-05-04T00:10:24.404Z,5.10
2018-05-04T00:11:00.074Z,4.80
2018-05-04T00:11:35.746Z,5.20
2018-05-04T00:12:11.943Z,5.40
2018-05-04T00:12:47.082Z,4.90
2018-05-04T00:13:22.611Z,4.80
2018-05-04T00:13:58.027Z,4.50
2018-05-04T00:14:33.594Z,5.60
2018-05-04T00:15:10.217Z,5.80
2018-05-04T00:15:49.963Z,4.80
2018-05-04T00:16:25.692Z,4.70
2018-05-04T00:17:01.149Z,4.40
2018-05-04T00:17:36.467Z,4.70
2018-05-04T00:18:11.692Z,4.40
2018-05-04T00:18:47.002Z,4.90
2018-05-04T00:19:22.438Z,4.60
2018-05-04T00:19:57.764Z,4.80
2018-05-04T00:20:33.283Z,5.50
2018-05-04T00:21:08.719Z,5.50
2018-05-04T00:21:44.070Z,5.00
2018-05-04T00:22:19.533Z,4.60
2018-05-04T00:22:54.912Z,4.60
2018-05-04T00:23:30.352Z,5.00
2018-05-04T00:24:05.831Z,4.70
2018-05-04T00:24:42.219Z,4.10
2018-05-04T00:25:17.767Z,4.20
2018-05-04T00:25:54.623Z,4.60
2018-05-04T00:26:30.057Z,4.80
2018-05-04T00:27:06.675Z,4.90
2018-05-04T00:27:43.249Z,5.80
2018-05-04T00:28:18.762Z,5.40
2018-05-04T00:28:54.110Z,4.80
2018-05-04T00:29:29.343Z,4.50
2018-05-04T00:30:04.799Z,4.40
2018-05-04T00:30:41.716Z,4.90
2018-05-04T00:31:17.283Z,5.00
2018-05-04T00:31:52.500Z,5.10
2018-05-04T00:32:28.031Z,4.80
2018-05-04T00:33:03.801Z,4.90
2018-05-04T00:33:39.051Z,4.90
2018-05-04T00:34:14.365Z,4.70
2018-05-04T00:34:50.024Z,4.90
2018-05-04T00:35:25.419Z,4.70
2018-05-04T00:36:00.681Z,4.50
2018-05-04T00:36:36.306Z,5.10
2018-05-04T00:37:11.714Z,5.20
2018-05-04T00:37:46.855Z,4.80
2018-05-04T00:38:22.081Z,4.40
2018-05-04T00:38:57.868Z,5.10
2018-05-04T00:39:33.115Z,5.20
2018-05-04T00:40:08.681Z,4.60
2018-05-04T00:40:47.002Z,4.90
2018-05-04T00:41:22.961Z,5.20
2018-05-04T00:41:58.505Z,5.10
2018-05-04T00:42:34.262Z,4.80
2018-05-04T00:43:09.925Z,4.70
2018-05-04T00:43:45.262Z,4.90
2018-05-04T00:44:20.580Z,5.40
2018-05-04T00:44:56.241Z,4.80
2018-05-04T00:45:31.683Z,4.40
2018-05-04T00:46:06.845Z,4.50
2018-05-04T00:46:43.370Z,5.30
2018-05-04T00:47:18.498Z,5.00
2018-05-04T00:47:53.909Z,4.80
2018-05-04T00:48:29.197Z,4.50
2018-05-04T00:49:04.607Z,4.40
2018-05-04T00:49:40.359Z,4.90
2018-05-04T00:50:15.916Z,4.70
2018-05-04T00:50:56.660Z,4.70
2018-05-04T00:51:32.003Z,4.70
2018-05-04T00:52:09.534Z,4.40
2018-05-04T00:52:49.105Z,4.40
2018-05-04T00:53:24.353Z,4.90
2018-05-04T00:53:59.844Z,4.40
2018-05-04T00:54:35.146Z,5.10
2018-05-04T00:55:10.486Z,4.80
2018-05-04T00:55:45.699Z,4.60
2018-05-04T00:56:21.207Z,4.60
2018-05-04T00:56:57.722Z,4.70
2018-05-04T00:57:33.289Z,4.50
2018-05-04T00:58:08.611Z,4.60
2018-05-04T00:58:43.927Z,4.90
2018-05-04T00:59:19.274Z,5.30
2018-05-04T00:59:54.528Z,5.30
2018-05-04T01:00:29.942Z,5.60
2018-05-04T01:01:05.411Z,4.90
2018-05-04T01:01:40.738Z,5.30
2018-05-04T01:02:16.574Z,5.20
2018-05-04T01:02:52.178Z,5.00
2018-05-04T01:03:27.707Z,4.90
2018-05-04T01:04:03.188Z,5.00
2018-05-04T01:04:39.968Z,5.10
2018-05-04T01:05:15.479Z,5.30
2018-05-04T01:05:50.908Z,4.90
2018-05-04T01:06:26.416Z,4.80
2018-05-04T01:07:01.850Z,4.70
2018-05-04T01:07:37.363Z,4.60
2018-05-04T01:08:12.972Z,4.80
2018-05-04T01:08:48.167Z,4.70
2018-05-04T01:09:24.494Z,4.70
2018-05-04T01:10:03.141Z,4.70
2018-05-04T01:10:38.821Z,4.80
2018-05-04T01:11:17.250Z,4.80
2018-05-04T01:11:52.607Z,4.80
2018-05-04T01:14:29.041Z,6.10
2018-05-04T01:15:06.775Z,5.40
2018-05-04T01:15:46.288Z,5.00
2018-05-04T01:16:23.166Z,5.40
2018-05-04T01:16:58.784Z,5.20
2018-05-04T01:17:34.189Z,4.80
2018-05-04T01:18:09.833Z,4.90
2018-05-04T01:18:45.109Z,5.00
2018-05-04T01:19:20.350Z,4.90
2018-05-04T01:19:56.045Z,4.90
2018-05-04T01:20:31.510Z,4.90
2018-05-04T01:21:06.905Z,5.40
2018-05-04T01:21:42.020Z,4.80
2018-05-04T01:22:17.407Z,4.90
2018-05-04T01:22:59.227Z,5.40
2018-05-04T01:23:34.764Z,5.50
2018-05-04T01:24:10.228Z,4.80
2018-05-04T01:24:45.689Z,5.20
2018-05-04T01:25:22.737Z,5.50
2018-05-04T01:25:57.987Z,5.10
2018-05-04T01:26:33.118Z,5.10
2018-05-04T01:27:08.429Z,5.50
2018-05-04T01:27:43.974Z,5.20
2018-05-04T01:28:19.535Z,5.50
2018-05-04T01:28:54.967Z,4.90
2018-05-04T01:29:30.297Z,5.00
2018-05-04T01:30:05.427Z,5.10
2018-05-04T01:30:41.954Z,4.90
2018-05-04T01:31:17.439Z,5.00
2018-05-04T01:31:52.859Z,5.30
2018-05-04T01:32:28.610Z,5.20
2018-05-04T01:33:03.734Z,5.70
2018-05-04T01:33:39.459Z,5.70
2018-05-04T01:34:14.885Z,5.00
2018-05-04T01:34:50.142Z,4.90
2018-05-04T01:35:25.467Z,5.00
2018-05-04T01:36:00.918Z,5.50
2018-05-04T01:36:36.577Z,5.10
2018-05-04T01:37:12.218Z,4.60
2018-05-04T01:37:47.555Z,4.80
2018-05-04T01:38:22.906Z,4.40
2018-05-04T01:38:58.200Z,4.60
2018-05-04T01:39:33.559Z,4.90
2018-05-04T01:40:08.868Z,5.30
2018-05-04T01:40:46.299Z,5.70
2018-05-04T01:41:21.940Z,4.80
2018-05-04T01:41:57.524Z,4.60
2018-05-04T01:42:32.838Z,4.80
2018-05-04T01:43:08.189Z,4.90
2018-05-04T01:43:43.410Z,6.10
2018-05-04T01:44:18.885Z,5.60
2018-05-04T01:44:54.437Z,4.80
2018-05-04T01:45:30.156Z,5.10
2018-05-04T01:46:05.868Z,5.70
2018-05-04T01:46:41.363Z,5.10
2018-05-04T01:47:16.699Z,5.00
2018-05-04T01:47:52.050Z,4.70
2018-05-04T01:48:28.595Z,5.10
2018-05-04T01:49:04.069Z,5.00
2018-05-04T01:49:39.298Z,5.00
2018-05-04T01:50:14.503Z,5.10
2018-05-04T01:50:49.745Z,5.30
2018-05-04T01:51:24.948Z,4.90
2018-05-04T01:52:00.901Z,4.60
2018-05-04T01:52:36.517Z,5.40
2018-05-04T01:53:11.736Z,5.10
2018-05-04T01:53:47.302Z,5.10
2018-05-04T01:54:22.855Z,5.20
2018-05-04T01:54:58.352Z,4.90
2018-05-04T01:55:33.803Z,5.00
2018-05-04T01:56:09.720Z,5.30
2018-05-04T01:56:45.928Z,5.60
2018-05-04T01:57:21.295Z,5.40
2018-05-04T01:57:56.625Z,5.00
2018-05-04T01:58:31.947Z,4.80
2018-05-04T01:59:07.352Z,4.80
2018-05-04T01:59:42.651Z,5.20
2018-05-04T02:00:18.029Z,5.70
2018-05-04T02:00:53.647Z,5.10
2018-05-04T02:01:29.027Z,4.90
2018-05-04T02:02:04.241Z,4.70
2018-05-04T02:02:39.933Z,5.30
2018-05-04T02:03:15.745Z,4.90
2018-05-04T02:03:51.383Z,4.90
2018-05-04T02:04:26.819Z,5.30
2018-05-04T02:05:02.248Z,5.30
2018-05-04T02:05:37.816Z,5.60
2018-05-04T02:06:13.267Z,5.20
2018-05-04T02:06:48.753Z,5.00
2018-05-04T02:07:24.105Z,5.00
2018-05-04T02:07:59.744Z,5.80
2018-05-04T02:08:35.270Z,5.80
2018-05-04T02:09:10.682Z,5.30
2018-05-04T02:09:46.106Z,5.10
2018-05-04T02:10:21.731Z,4.90
2018-05-04T02:10:57.189Z,5.00
2018-05-04T02:11:32.610Z,5.30
2018-05-04T02:12:08.144Z,5.00
2018-05-04T02:12:43.499Z,6.20
2018-05-04T02:13:18.747Z,6.10
2018-05-04T02:13:54.205Z,5.40
2018-05-04T02:14:29.842Z,5.00
2018-05-04T02:15:05.347Z,5.50
2018-05-04T02:15:42.499Z,5.20
2018-05-04T02:16:18.022Z,5.30
2018-05-04T02:16:53.251Z,5.50
2018-05-04T02:17:28.371Z,5.80
2018-05-04T02:18:03.685Z,5.40
2018-05-04T02:18:39.002Z,4.90
2018-05-04T02:19:14.257Z,5.20
2018-05-04T02:19:49.711Z,5.70
2018-05-04T02:20:25.129Z,5.40
2018-05-04T02:21:00.434Z,4.80
2018-05-04T02:21:35.773Z,5.50
2018-05-04T02:22:11.211Z,5.60
2018-05-04T02:22:46.739Z,5.10
2018-05-04T02:23:22.182Z,5.30
2018-05-04T02:23:57.519Z,5.60
2018-05-04T02:24:32.920Z,5.70
2018-05-04T02:25:08.463Z,5.00
2018-05-04T02:25:45.589Z,5.30
2018-05-04T02:26:20.848Z,5.60
2018-05-04T02:26:56.249Z,5.80
2018-05-04T02:27:32.217Z,6.10
2018-05-04T02:28:07.729Z,5.80
2018-05-04T02:28:43.103Z,5.60
2018-05-04T02:29:18.812Z,5.90
2018-05-04T02:29:53.951Z,6.10
2018-05-04T02:30:29.366Z,5.60
2018-05-04T02:31:06.504Z,5.80
2018-05-04T02:31:41.934Z,5.40
2018-05-04T02:32:17.180Z,5.50
2018-05-04T02:32:52.305Z,5.20
2018-05-04T02:33:27.789Z,5.60
2018-05-04T02:34:03.257Z,5.90
2018-05-04T02:34:38.456Z,5.60
2018-05-04T02:35:13.670Z,5.10
2018-05-04T02:35:53.121Z,4.70
2018-05-04T02:36:28.462Z,5.50
2018-05-04T02:37:03.609Z,6.10
2018-05-04T02:37:39.323Z,5.80
2018-05-04T02:38:14.661Z,5.40
2018-05-04T02:38:50.271Z,5.20
2018-05-04T02:39:25.592Z,5.70
2018-05-04T02:40:00.779Z,5.00
2018-05-04T02:40:36.224Z,5.70
2018-05-04T02:41:11.636Z,5.50
2018-05-04T02:41:47.081Z,5.50
2018-05-04T02:42:22.417Z,5.40
2018-05-04T02:42:57.643Z,5.40
2018-05-04T02:43:33.004Z,5.30
2018-05-04T02:44:08.041Z,5.60
2018-05-04T02:44:43.316Z,5.30
2018-05-04T02:45:18.733Z,5.50
2018-05-04T02:45:54.066Z,5.90
2018-05-04T02:46:29.782Z,5.90
2018-05-04T02:47:05.231Z,5.80
2018-05-04T02:47:40.362Z,6.00
2018-05-04T02:48:15.943Z,5.30
2018-05-04T02:48:51.383Z,5.40
2018-05-04T02:49:27.017Z,5.20
2018-05-04T02:50:02.467Z,5.40
2018-05-04T02:50:38.187Z,5.40
2018-05-04T02:51:13.796Z,5.50
2018-05-04T02:51:49.163Z,5.70
2018-05-04T02:52:24.576Z,5.90
2018-05-04T02:52:59.928Z,5.40
2018-05-04T02:53:35.453Z,5.20
2018-05-04T02:54:10.679Z,5.70
2018-05-04T02:54:46.131Z,6.20
2018-05-04T02:55:21.418Z,5.60
2018-05-04T02:55:56.742Z,5.80
2018-05-04T02:56:31.999Z,5.30
2018-05-04T02:57:09.206Z,5.30
2018-05-04T02:57:44.373Z,5.20
2018-05-04T02:58:19.506Z,5.40
2018-05-04T02:58:54.850Z,5.50
2018-05-04T02:59:30.170Z,5.00
2018-05-04T03:00:05.698Z,5.40
2018-05-04T03:00:41.136Z,5.50
2018-05-04T03:01:17.122Z,5.60
2018-05-04T03:01:52.334Z,5.40
2018-05-04T03:02:28.485Z,5.50
2018-05-04T03:03:03.814Z,5.30
2018-05-04T03:03:39.261Z,5.10
2018-05-04T03:04:14.448Z,5.30
2018-05-04T03:04:50.564Z,5.30
2018-05-04T03:05:25.873Z,5.70
2018-05-04T03:06:01.590Z,6.10
2018-05-04T03:06:37.257Z,5.30
2018-05-04T03:07:12.901Z,5.60
2018-05-04T03:07:48.605Z,5.90
2018-05-04T03:08:23.930Z,6.00
2018-05-04T03:08:59.422Z,5.70
2018-05-04T03:09:35.076Z,5.70
2018-05-04T03:10:10.411Z,5.80
2018-05-04T03:10:47.282Z,5.70
2018-05-04T03:11:22.700Z,6.20
2018-05-04T03:11:58.058Z,6.30
2018-05-04T03:12:33.376Z,6.30
2018-05-04T03:13:08.418Z,6.10
2018-05-04T03:13:43.618Z,5.50
2018-05-04T03:14:18.972Z,6.30
2018-05-04T03:14:54.312Z,6.20
2018-05-04T03:15:29.436Z,5.90
2018-05-04T03:16:05.077Z,6.00
2018-05-04T03:16:40.569Z,6.00
2018-05-04T03:17:15.876Z,6.10
2018-05-04T03:17:51.348Z,6.30
2018-05-04T03:18:26.688Z,6.10
2018-05-04T03:19:02.118Z,6.60
2018-05-04T03:19:37.560Z,7.10
2018-05-04T03:20:13.013Z,6.20
2018-05-04T03:20:48.637Z,6.10
2018-05-04T03:21:24.087Z,5.60
2018-05-04T03:21:59.471Z,5.80
2018-05-04T03:22:34.739Z,6.30
2018-05-04T03:23:10.447Z,6.00
2018-05-04T03:23:45.979Z,5.30
2018-05-04T03:24:21.305Z,5.50
2018-05-04T03:24:56.725Z,6.00
2018-05-04T03:25:32.123Z,5.90
2018-05-04T03:26:07.593Z,5.60
2018-05-04T03:26:43.251Z,5.70
2018-05-04T03:27:18.885Z,5.70
2018-05-04T03:27:54.122Z,6.30
2018-05-04T03:28:29.558Z,6.10
2018-05-04T03:29:05.303Z,6.10
2018-05-04T03:29:40.639Z,5.80
2018-05-04T03:30:16.480Z,5.90
2018-05-04T03:30:53.005Z,5.80
2018-05-04T03:31:28.719Z,5.60
2018-05-04T03:32:04.063Z,5.40
2018-05-04T03:32:39.637Z,5.90
2018-05-04T03:33:15.112Z,6.80
2018-05-04T03:33:50.618Z,6.80
2018-05-04T03:34:26.143Z,5.40
2018-05-04T03:35:01.717Z,5.20
2018-05-04T03:35:37.216Z,6.50
2018-05-04T03:36:12.644Z,5.90
2018-05-04T03:36:51.281Z,5.80
2018-05-04T03:37:26.949Z,6.20
2018-05-04T03:38:02.834Z,6.80
2018-05-04T03:38:38.175Z,6.30
2018-05-04T03:39:13.698Z,5.70
2018-05-04T03:39:49.448Z,5.70
2018-05-04T03:40:24.857Z,6.50
2018-05-04T03:41:00.109Z,6.60
2018-05-04T03:41:37.841Z,5.90
2018-05-04T03:42:13.885Z,6.40
2018-05-04T03:42:49.544Z,6.80
2018-05-04T03:43:25.161Z,6.50
2018-05-04T03:44:00.476Z,6.00
2018-05-04T03:44:35.731Z,6.00
2018-05-04T03:45:11.140Z,6.00
2018-05-04T03:45:46.359Z,5.80
2018-05-04T03:46:21.694Z,6.40
2018-05-04T03:46:57.430Z,6.70
2018-05-04T03:47:32.934Z,6.60
2018-05-04T03:48:08.188Z,6.00
2018-05-04T03:48:44.439Z,5.80
2018-05-04T03:49:19.976Z,6.20
2018-05-04T03:49:55.587Z,6.30
2018-05-04T03:50:30.936Z,6.70
2018-05-04T03:51:06.179Z,6.30
2018-05-04T03:51:41.739Z,5.80
2018-05-04T03:52:17.045Z,5.40
2018-05-04T03:52:52.282Z,5.50
2018-05-04T03:53:27.889Z,5.90
2018-05-04T03:54:03.192Z,6.50
2018-05-04T03:54:38.617Z,6.10
2018-05-04T03:55:14.040Z,6.60
2018-05-04T03:57:50.394Z,6.10
2018-05-04T03:58:26.032Z,6.40
2018-05-04T03:59:00.969Z,6.60
2018-05-04T03:59:36.447Z,6.90
2018-05-04T04:00:11.553Z,6.90
2018-05-04T04:00:48.538Z,6.30
2018-05-04T04:01:24.246Z,6.40
2018-05-04T04:01:59.559Z,6.30
2018-05-04T04:02:35.292Z,6.20
2018-05-04T04:03:10.857Z,6.70
2018-05-04T04:03:46.176Z,6.70
2018-05-04T04:04:21.394Z,6.30
2018-05-04T04:04:57.344Z,5.80
2018-05-04T04:05:32.768Z,6.40
2018-05-04T04:06:08.207Z,6.30
2018-05-04T04:06:44.206Z,6.50
2018-05-04T04:07:19.574Z,6.10
2018-05-04T04:07:55.168Z,6.40
2018-05-04T04:08:30.453Z,6.90
2018-05-04T04:09:05.704Z,6.60
2018-05-04T04:09:41.131Z,6.50
2018-05-04T04:10:16.516Z,6.20
2018-05-04T04:10:55.263Z,6.00
2018-05-04T04:11:30.583Z,6.50
2018-05-04T04:12:06.123Z,6.60
2018-05-04T04:12:41.356Z,6.50
2018-05-04T04:13:16.739Z,6.00
2018-05-04T04:13:52.040Z,6.30
2018-05-04T04:14:27.199Z,7.20
2018-05-04T04:15:02.736Z,7.20
2018-05-04T04:15:38.510Z,7.10
2018-05-04T04:16:13.760Z,7.00
2018-05-04T04:16:49.057Z,7.40
2018-05-04T04:17:24.556Z,6.90
2018-05-04T04:18:00.034Z,6.50
2018-05-04T04:18:35.328Z,6.10
2018-05-04T04:19:10.963Z,6.90
2018-05-04T04:19:46.715Z,6.10
2018-05-04T04:20:22.250Z,5.70
2018-05-04T04:20:57.918Z,6.10
2018-05-04T04:21:33.263Z,6.20
2018-05-04T04:22:08.577Z,6.60
2018-05-04T04:22:43.796Z,6.20
2018-05-04T04:23:19.189Z,6.50
2018-05-04T04:23:54.471Z,6.00
2018-05-04T04:24:29.684Z,6.30
2018-05-04T04:25:05.001Z,6.80
2018-05-04T04:25:40.238Z,7.10
2018-05-04T04:26:16.097Z,6.50
2018-05-04T04:26:51.618Z,6.80
2018-05-04T04:27:27.027Z,7.20
2018-05-04T04:28:02.326Z,7.30
2018-05-04T04:28:38.154Z,6.60
2018-05-04T04:29:13.437Z,6.60
2018-05-04T04:29:48.771Z,6.60
2018-05-04T04:30:24.477Z,6.60
2018-05-04T04:30:59.988Z,6.90
2018-05-04T04:31:35.427Z,6.60
2018-05-04T04:32:10.979Z,6.60
2018-05-04T04:32:46.512Z,7.10
2018-05-04T04:33:22.009Z,6.60
2018-05-04T04:33:57.312Z,6.40
2018-05-04T04:34:33.011Z,6.20
2018-05-04T04:35:08.273Z,6.60
2018-05-04T04:35:45.094Z,6.70
2018-05-04T04:36:20.975Z,6.60
2018-05-04T04:36:56.448Z,7.00
2018-05-04T04:37:31.896Z,6.80
2018-05-04T04:38:07.226Z,6.10
2018-05-04T04:38:42.515Z,6.10
2018-05-04T04:39:18.032Z,6.60
2018-05-04T04:39:53.330Z,7.50
2018-05-04T04:40:28.766Z,7.30
2018-05-04T04:41:04.268Z,7.00
2018-05-04T04:41:39.467Z,6.60
2018-05-04T04:42:14.688Z,6.60
2018-05-04T04:42:50.077Z,7.00
2018-05-04T04:43:25.385Z,6.50
2018-05-04T04:44:00.826Z,5.90
2018-05-04T04:44:36.354Z,6.50
2018-05-04T04:45:11.639Z,6.00
2018-05-04T04:45:51.065Z,5.70
2018-05-04T04:46:27.137Z,6.20
2018-05-04T04:47:02.415Z,5.50
2018-05-04T04:47:37.741Z,5.50
2018-05-04T04:48:13.056Z,5.60
2018-05-04T04:48:48.647Z,5.60
2018-05-04T04:49:24.252Z,5.80
2018-05-04T04:49:59.584Z,5.70
2018-05-04T04:50:34.649Z,5.50
2018-05-04T04:51:09.897Z,5.10
2018-05-04T04:51:45.234Z,5.20
2018-05-04T04:52:20.591Z,5.30
2018-05-04T04:52:55.929Z,5.00
2018-05-04T04:53:31.562Z,4.70
2018-05-04T04:54:06.963Z,4.60
2018-05-04T04:54:42.382Z,4.70
2018-05-04T04:55:17.654Z,5.10
2018-05-04T04:55:52.963Z,5.10
2018-05-04T04:56:28.510Z,4.80
2018-05-04T04:57:03.795Z,5.70
2018-05-04T04:57:39.081Z,5.90
2018-05-04T04:58:14.411Z,5.30
2018-05-04T04:58:50.002Z,5.10
2018-05-04T04:59:25.708Z,5.20
2018-05-04T05:00:01.207Z,5.00
2018-05-04T05:00:39.499Z,4.90
2018-05-04T05:01:14.889Z,5.00
2018-05-04T05:01:50.353Z,5.60
2018-05-04T05:02:25.580Z,5.00
2018-05-04T05:03:00.934Z,4.90
2018-05-04T05:03:36.153Z,5.10
2018-05-04T05:04:11.471Z,5.30
2018-05-04T05:04:47.095Z,5.00
2018-05-04T05:05:22.530Z,4.70
2018-05-04T05:05:59.621Z,4.80
2018-05-04T05:06:35.048Z,5.00
2018-05-04T05:07:11.961Z,5.10
2018-05-04T05:07:47.419Z,5.00
2018-05-04T05:08:22.729Z,4.60
2018-05-04T05:08:58.351Z,4.90
2018-05-04T05:09:33.590Z,5.10
2018-05-04T05:10:08.949Z,4.90
2018-05-04T05:10:44.552Z,4.50
2018-05-04T05:11:19.963Z,5.00
2018-05-04T05:11:55.359Z,5.00
2018-05-04T05:12:30.736Z,4.40
2018-05-04T05:13:05.953Z,4.50
2018-05-04T05:13:41.678Z,4.80
2018-05-04T05:14:16.795Z,4.90
2018-05-04T05:14:51.972Z,4.50
2018-05-04T05:15:27.388Z,4.90
2018-05-04T05:16:02.720Z,4.70
2018-05-04T05:16:38.059Z,4.50
2018-05-04T05:17:13.439Z,4.90
2018-05-04T05:17:48.860Z,4.90
2018-05-04T05:18:25.646Z,4.00
2018-05-04T05:19:00.864Z,4.30
2018-05-04T05:19:36.701Z,4.40
2018-05-04T05:20:11.992Z,4.40
2018-05-04T05:20:47.414Z,4.80
2018-05-04T05:21:22.891Z,4.90
2018-05-04T05:21:58.558Z,4.50
2018-05-04T05:22:33.912Z,4.10
2018-05-04T05:23:09.432Z,4.70
2018-05-04T05:23:44.707Z,4.90
2018-05-04T05:24:19.961Z,4.30
2018-05-04T05:24:55.260Z,4.50
2018-05-04T05:25:30.703Z,4.20
2018-05-04T05:26:06.052Z,3.90
2018-05-04T05:26:41.674Z,4.40
2018-05-04T05:27:17.395Z,4.40
2018-05-04T05:27:52.686Z,4.80
2018-05-04T05:28:28.299Z,4.90
2018-05-04T05:29:03.538Z,4.30
2018-05-04T05:29:38.628Z,3.90
2018-05-04T05:30:13.791Z,4.10
2018-05-04T05:30:49.349Z,4.40
2018-05-04T05:31:24.773Z,4.70
2018-05-04T05:32:00.499Z,4.90
2018-05-04T05:32:35.732Z,4.50
2018-05-04T05:33:11.228Z,4.20
2018-05-04T05:33:46.543Z,4.50
2018-05-04T05:34:22.243Z,4.80
2018-05-04T05:34:57.588Z,4.70
2018-05-04T05:35:33.171Z,5.10
2018-05-04T05:36:08.443Z,5.00
2018-05-04T05:36:43.743Z,4.60
2018-05-04T05:37:19.069Z,5.10
2018-05-04T05:37:54.366Z,5.10
2018-05-04T05:38:29.692Z,4.20
2018-05-04T05:39:05.216Z,4.70
2018-05-04T05:39:40.406Z,4.80
2018-05-04T05:40:15.854Z,4.30
2018-05-04T05:40:51.350Z,4.10
2018-05-04T05:41:27.954Z,3.80
2018-05-04T05:42:04.139Z,4.20
2018-05-04T05:42:40.047Z,4.00
2018-05-04T05:43:15.651Z,5.00
2018-05-04T05:43:51.059Z,5.10
2018-05-04T05:44:26.591Z,5.10
2018-05-04T05:45:03.287Z,4.50
2018-05-04T05:45:38.943Z,4.20
2018-05-04T05:46:14.402Z,4.20
2018-05-04T05:46:50.419Z,4.40
2018-05-04T05:47:25.740Z,5.00
2018-05-04T05:48:01.102Z,4.10
2018-05-04T05:48:36.605Z,4.70
2018-05-04T05:49:11.711Z,5.60
2018-05-04T05:49:46.839Z,4.90
2018-05-04T05:50:22.031Z,4.80
2018-05-04T05:50:57.385Z,4.40
2018-05-04T05:51:32.786Z,4.20
2018-05-04T05:52:08.004Z,3.70
2018-05-04T05:52:45.092Z,4.30
2018-05-04T05:53:20.503Z,4.50
2018-05-04T05:53:55.800Z,4.70
2018-05-04T05:54:31.355Z,4.90
2018-05-04T05:55:06.659Z,4.90
2018-05-04T05:55:43.170Z,4.90
2018-05-04T05:56:18.606Z,5.00
2018-05-04T05:56:54.198Z,5.60
2018-05-04T05:57:29.922Z,5.40
2018-05-04T05:58:05.301Z,4.70
2018-05-04T05:58:41.265Z,4.40
2018-05-04T05:59:16.577Z,4.50
2018-05-04T05:59:52.103Z,5.00
2018-05-04T06:00:27.679Z,5.10
2018-05-04T06:01:02.700Z,5.00
2018-05-04T06:01:39.477Z,4.70
2018-05-04T06:02:14.818Z,4.60
2018-05-04T06:02:49.948Z,4.80
2018-05-04T06:03:25.480Z,4.40
2018-05-04T06:04:01.312Z,4.70
2018-05-04T06:04:36.343Z,4.40
2018-05-04T06:05:12.069Z,4.50
2018-05-04T06:05:47.679Z,4.80
2018-05-04T06:06:23.298Z,5.00
2018-05-04T06:07:01.395Z,4.60
2018-05-04T06:07:38.239Z,4.90
2018-05-04T06:08:13.659Z,4.90
2018-05-04T06:08:48.759Z,4.60
2018-05-04T06:09:24.060Z,4.90
2018-05-04T06:09:59.379Z,4.80
2018-05-04T06:10:34.715Z,4.50
2018-05-04T06:11:10.111Z,4.70
2018-05-04T06:11:45.528Z,4.80
2018-05-04T06:12:23.905Z,4.90
2018-05-04T06:13:02.300Z,4.50
2018-05-04T06:13:40.420Z,4.80
2018-05-04T06:14:15.825Z,5.10
2018-05-04T06:14:51.145Z,4.80
2018-05-04T06:15:27.645Z,4.60
2018-05-04T06:16:03.282Z,4.60
2018-05-04T06:16:38.766Z,4.80
2018-05-04T06:17:14.333Z,4.20
2018-05-04T06:17:49.636Z,4.20
2018-05-04T06:18:24.970Z,4.30
2018-05-04T06:19:00.300Z,4.60
2018-05-04T06:19:36.015Z,4.60
2018-05-04T06:20:11.360Z,4.80
2018-05-04T06:20:46.998Z,4.90
2018-05-04T06:21:22.396Z,4.20
2018-05-04T06:21:57.712Z,4.90
2018-05-04T06:22:33.157Z,4.60
2018-05-04T06:23:08.480Z,4.50
2018-05-04T06:23:44.697Z,5.40
2018-05-04T06:24:19.843Z,5.50
2018-05-04T06:24:55.225Z,4.90
2018-05-04T06:25:30.538Z,4.50
2018-05-04T06:26:08.832Z,4.80
2018-05-04T06:26:44.230Z,5.10
2018-05-04T06:27:19.661Z,4.90
2018-05-04T06:27:55.230Z,4.50
2018-05-04T06:28:36.848Z,4.60
2018-05-04T06:29:12.780Z,4.90
2018-05-04T06:29:51.558Z,4.80
2018-05-04T06:30:27.116Z,4.60
2018-05-04T06:31:05.656Z,4.90
2018-05-04T06:31:40.873Z,5.20
2018-05-04T06:32:16.209Z,5.20
2018-05-04T06:32:51.832Z,5.10
2018-05-04T06:33:32.951Z,5.00
2018-05-04T06:34:08.259Z,4.70
2018-05-04T06:34:46.804Z,4.50
2018-05-04T06:35:25.207Z,4.70
2018-05-04T06:36:00.850Z,4.90
2018-05-04T06:36:38.419Z,5.00
2018-05-04T06:37:13.707Z,4.40
2018-05-04T06:37:49.244Z,4.70
2018-05-04T06:38:24.655Z,4.90
2018-05-04T06:39:00.324Z,4.80
2018-05-04T06:39:35.762Z,4.90
2018-05-04T06:40:11.379Z,5.10
2018-05-04T06:40:47.111Z,5.60
2018-05-04T06:41:22.357Z,5.60
2018-05-04T06:41:57.853Z,5.30
2018-05-04T06:42:33.320Z,4.90
2018-05-04T06:43:08.622Z,5.10
2018-05-04T06:43:45.238Z,4.80
2018-05-04T06:44:20.811Z,5.10
2018-05-04T06:44:56.620Z,5.10
2018-05-04T06:45:33.769Z,4.60
2018-05-04T06:46:09.167Z,5.20
2018-05-04T06:46:45.608Z,5.60
2018-05-04T06:47:21.000Z,5.30
2018-05-04T06:47:56.776Z,5.10
2018-05-04T06:48:32.083Z,5.20
2018-05-04T06:49:07.722Z,5.10
2018-05-04T06:49:43.374Z,5.00
2018-05-04T06:50:18.706Z,4.50
2018-05-04T06:50:54.952Z,4.80
2018-05-04T06:51:30.583Z,4.50
2018-05-04T06:52:06.096Z,4.60
2018-05-04T06:52:41.620Z,5.40
2018-05-04T06:53:17.004Z,5.40
2018-05-04T06:53:52.376Z,5.00
2018-05-04T06:54:27.617Z,5.00
2018-05-04T06:55:03.458Z,4.90
2018-05-04T06:55:38.861Z,5.30
2018-05-04T06:56:14.215Z,4.60
2018-05-04T06:56:49.810Z,4.60
2018-05-04T06:57:25.156Z,5.20
2018-05-04T06:58:00.477Z,4.70
2018-05-04T06:58:37.994Z,4.70
2018-05-04T06:59:13.318Z,5.20
2018-05-04T06:59:49.467Z,5.50
2018-05-04T07:00:25.179Z,5.10
2018-05-04T07:01:00.659Z,4.80
2018-05-04T07:01:36.058Z,4.80
2018-05-04T07:02:11.591Z,4.70
2018-05-04T07:02:49.580Z,4.60
2018-05-04T07:03:25.718Z,4.90
2018-05-04T07:04:01.227Z,5.10
2018-05-04T07:04:40.012Z,5.30
2018-05-04T07:05:15.161Z,4.80
2018-05-04T07:05:53.887Z,4.80
2018-05-04T07:06:29.506Z,4.80
2018-05-04T07:07:05.639Z,5.60
2018-05-04T07:07:41.142Z,5.10
2018-05-04T07:08:19.920Z,4.80
2018-05-04T07:08:55.198Z,5.20
2018-05-04T07:09:30.272Z,5.60
2018-05-04T07:10:05.635Z,4.90
2018-05-04T07:10:42.586Z,4.90
2018-05-04T07:11:17.920Z,5.10
2018-05-04T07:11:54.331Z,4.60
2018-05-04T07:12:33.059Z,4.50
2018-05-04T07:13:08.277Z,4.80
2018-05-04T07:13:46.922Z,4.60
2018-05-04T07:14:22.532Z,5.40
2018-05-04T07:15:00.583Z,5.30
2018-05-04T07:15:34.025Z,4.60
2018-05-04T07:16:10.758Z,5.00
2018-05-04T07:16:49.184Z,5.30
2018-05-04T07:17:24.411Z,4.80
2018-05-04T07:17:59.656Z,4.50
2018-05-04T07:18:34.784Z,4.60
2018-05-04T07:19:10.122Z,4.70
2018-05-04T07:19:45.633Z,4.80
2018-05-04T07:20:24.356Z,4.40
2018-05-04T07:20:59.491Z,4.50
2018-05-04T07:21:34.740Z,4.40
2018-05-04T07:22:10.651Z,4.10
2018-05-04T07:22:46.014Z,4.60
2018-05-04T07:23:21.358Z,4.90
2018-05-04T07:23:57.491Z,4.70
2018-05-04T07:24:33.324Z,5.00
2018-05-04T07:25:08.763Z,4.90
2018-05-04T07:25:48.294Z,5.20
2018-05-04T07:26:26.627Z,5.80
2018-05-04T07:27:02.146Z,4.60
2018-05-04T07:27:37.814Z,4.40
2018-05-04T07:28:13.539Z,4.60
2018-05-04T07:28:49.190Z,4.90
2018-05-04T07:29:24.554Z,5.00
2018-05-04T07:30:03.495Z,5.20
2018-05-04T07:30:43.062Z,5.10
2018-05-04T07:31:18.506Z,5.30
2018-05-04T07:31:53.695Z,4.80
2018-05-04T07:32:29.106Z,4.80
2018-05-04T07:33:07.932Z,5.30
2018-05-04T07:33:43.171Z,4.80
2018-05-04T07:34:18.890Z,5.10
2018-05-04T07:34:54.432Z,5.80
2018-05-04T07:35:29.776Z,5.40
2018-05-04T07:36:05.134Z,4.90
2018-05-04T07:36:47.365Z,4.90
2018-05-04T07:37:25.146Z,4.80
2018-05-04T07:38:00.586Z,5.10
2018-05-04T07:38:37.627Z,5.70
2018-05-04T07:39:12.971Z,5.60
2018-05-04T07:39:51.622Z,5.80
2018-05-04T07:40:27.185Z,5.70
2018-05-04T07:41:06.110Z,4.70
2018-05-04T07:41:45.464Z,5.10
2018-05-04T07:42:20.992Z,5.30
2018-05-04T07:42:56.467Z,4.90
2018-05-04T07:43:35.416Z,4.80
2018-05-04T07:44:10.913Z,4.90
2018-05-04T07:44:46.184Z,4.90
2018-05-04T07:45:23.888Z,5.00
2018-05-04T07:45:59.135Z,4.80
2018-05-04T07:46:34.580Z,4.70
2018-05-04T07:47:10.389Z,4.70
2018-05-04T07:47:45.909Z,4.40
2018-05-04T07:48:21.370Z,4.50
2018-05-04T07:48:56.734Z,4.20
2018-05-04T07:49:32.420Z,4.20
2018-05-04T07:50:07.767Z,4.70
2018-05-04T07:50:43.186Z,4.50
2018-05-04T07:51:18.424Z,4.40
2018-05-04T07:51:53.755Z,4.70
2018-05-04T07:52:29.298Z,4.50
2018-05-04T07:53:04.713Z,5.00
2018-05-04T07:53:40.158Z,5.10
2018-05-04T07:54:15.585Z,4.70
2018-05-04T07:54:53.643Z,4.60
2018-05-04T07:55:29.139Z,4.30
2018-05-04T07:56:04.447Z,4.40
2018-05-04T07:56:40.217Z,4.60
2018-05-04T07:57:15.808Z,4.70
2018-05-04T07:57:51.064Z,5.30
2018-05-04T07:58:26.589Z,5.20
2018-05-04T07:59:03.430Z,5.20
2018-05-04T07:59:38.641Z,4.50